Latest Coastal Weather Observations for Yamba

IDN60701

Issued at 1:42 pm EST Sunday 25 September 2016 (issued every 10 minutes, with the page automatically refreshed every 10 minutes)

About coastal observations | Map of coastal stations | Coastal observations for NSW | Marine services | Other Formats
Station Details ID: 058012 Name: YAMBA PILOT STATION Lat: -29.43 Lon: 153.36 Height: 27.4 m
Data from the previous 72 hours. | See also: Recent months at Yamba
Date/Time
EST
Temp
°C
Wind Pressure Rain since
9am
mm
Weather Cloud Vis
km
Sea
Height
m
Swell
Dir  Spd
kts
Gust
kts
hPa Trend Height
m
Period
s
Dir
25/01:30pm 27.2 WNW 8 15 1003.9 - 0.0 - - - - - - -
25/01:00pm 25.3 W 10 16 1004.2 - 0.0 - - - - - - -
25/12:30pm 25.9 W 10 15 1004.4 - 0.0 - - - - - - -
25/12:00pm 26.1 WNW 5 9 1005.1 - 0.0 - - - - - - -
25/11:30am 24.8 WNW 7 11 1005.9 - 0.0 - - - - - - -
25/11:00am 24.7 NW 7 11 1006.2 - 0.0 - - - - - - -
25/10:30am 24.9 NW 6 9 1006.4 - 0.0 - - - - - - -
25/10:00am 24.2 NW 7 11 1007.0 - 0.0 - - - - - - -
25/09:30am 21.8 NW 5 6 1006.9 - 0.0 - - - - - - -
25/09:00am 21.0 NW 6 8 1007.5 - 0.2 - - - - - - -
25/08:30am 19.9 NW 5 7 1007.9 - 0.2 - - - - - - -
25/08:00am 16.8 WNW 4 5 1008.4 - 0.2 - - - - - - -
25/07:30am 15.8 W 5 7 1008.5 - 0.2 - - - - - - -
25/07:00am 15.9 WNW 8 11 1008.8 - 0.0 - - - - - - -
25/06:30am 16.1 WSW 6 9 1008.2 - 0.0 - - - - - - -
25/06:00am 16.0 W 6 8 1008.1 - 0.0 - - - - - - -
25/05:30am 16.3 WNW 6 8 1008.0 - 0.0 - - - - - - -
25/05:00am 16.2 NW 5 7 1007.5 - 0.0 - - - - - - -
25/04:30am 15.7 WNW 5 6 1007.6 - 0.0 - - - - - - -
25/04:00am 15.7 WNW 5 7 1007.2 - 0.0 - - - - - - -
25/03:30am 15.9 W 4 7 1006.9 - 0.0 - - - - - - -
25/03:00am 15.8 W 6 8 1007.2 - 0.0 - - - - - - -
25/02:30am 16.0 WNW 7 9 1007.4 - 0.0 - - - - - - -
25/02:00am 16.0 WNW 5 7 1007.6 - 0.0 - - - - - - -
25/01:30am 15.8 WNW 6 9 1008.1 - 0.0 - - - - - - -
25/01:00am 15.9 WNW 4 5 1008.6 - 0.0 - - - - - - -
25/12:30am 16.5 NW 5 7 1008.7 - 0.0 - - - - - - -
25/12:00am 17.1 NW 5 7 1008.9 - 0.0 - - - - - - -
 
Date/Time
EST
Temp
°C
Wind Pressure Rain since
9am
mm
Weather Cloud Vis
km
Sea
Height
m
Swell
Dir  Spd
kts
Gust
kts
hPa Trend Height
m
Period
s
Dir
24/11:30pm 17.2 NW 5 9 1009.0 - 0.0 - - - - - - -
24/11:00pm 17.5 NNW 5 7 1009.3 - 0.0 - - - - - - -
24/10:30pm 17.6 NNW 5 8 1009.6 - 0.0 - - - - - - -
24/10:00pm 18.0 NNW 6 8 1009.6 - 0.0 - - - - - - -
24/09:30pm 18.6 N 5 8 1009.6 - 0.0 - - - - - - -
24/09:00pm 19.2 N 6 9 1009.5 - 0.0 - - - - - - -
24/08:30pm 19.3 N 7 10 1009.6 - 0.0 - - - - - - -
24/08:00pm 19.3 N 6 9 1009.7 - 0.0 - - - - - - -
24/07:30pm 19.4 NNE 5 9 1009.8 - 0.0 - - - - - - -
24/07:00pm 19.6 NNE 5 8 1009.8 - 0.0 - - - - - - -
24/06:30pm 19.8 NE 6 9 1009.6 - 0.0 - - - - - - -
24/06:00pm 19.8 NE 6 8 1009.5 - 0.0 - - - - - - -
24/05:30pm 20.1 NE 5 8 1009.1 - 0.0 - - - - - - -
24/05:00pm 20.7 NE 6 10 1008.8 - 0.0 - - - - - - -
24/04:30pm 21.2 NE 6 11 1008.9 - 0.0 - - - - - - -
24/04:00pm 21.6 NE 7 11 1008.8 - 0.0 - - - - - - -
24/03:30pm 21.8 NE 8 12 1008.5 - 0.0 - - - - - - -
24/03:00pm 22.1 NE 7 10 1008.6 - 0.0 - - - - - - -
24/02:30pm 21.9 ENE 7 11 1008.7 - 0.0 - - - - - - -
24/02:00pm 22.2 E 6 10 1008.9 - 0.0 - - - - - - -
24/01:30pm 22.8 E 6 7 1009.2 - 0.0 - - - - - - -
24/01:00pm 23.1 E 6 8 1009.5 - 0.0 - - - - - - -
24/12:30pm 22.9 E 6 7 1010.1 - 0.0 - - - - - - -
24/12:00pm 22.4 E 6 9 1010.6 - 0.0 - - - - - - -
24/11:30am 22.0 ENE 6 8 1011.0 - 0.0 - - - - - - -
24/11:00am 21.9 ENE 6 8 1011.5 - 0.0 - - - - - - -
24/10:30am 24.5 NNW 4 6 1011.7 - 0.0 - - - - - - -
24/10:00am 22.7 NW 5 6 1012.2 - 0.0 - - - - - - -
24/09:30am 22.9 NW 5 7 1012.5 - 0.0 - - - - - - -
24/09:00am 21.2 W 5 8 1012.7 - 0.0 - - - - - - -
24/08:30am 19.8 W 5 6 1012.9 - 0.0 - - - - - - -
24/08:00am 18.5 W 5 7 1012.9 - 0.0 - - - - - - -
24/07:30am 16.9 W 5 8 1012.8 - 0.0 - - - - - - -
24/07:00am 15.8 W 5 8 1012.5 - 0.0 - - - - - - -
24/06:30am 14.6 WSW 6 8 1011.9 - 0.0 - - - - - - -
24/06:00am 14.1 WSW 6 8 1011.6 - 0.0 - - - - - - -
24/05:30am 14.4 SW 5 9 1011.4 - 0.0 - - - - - - -
24/05:00am 14.6 SW 6 8 1011.1 - 0.0 - - - - - - -
24/04:30am 14.9 SW 6 8 1010.9 - 0.0 - - - - - - -
24/04:00am 14.8 SW 5 6 1010.6 - 0.0 - - - - - - -
24/03:30am 15.2 SW 7 9 1010.5 - 0.0 - - - - - - -
24/03:00am 15.0 SW 6 8 1010.5 - 0.0 - - - - - - -
24/02:30am 15.4 SW 4 5 1010.6 - 0.0 - - - - - - -
24/02:00am 15.5 SW 5 7 1010.7 - 0.0 - - - - - - -
24/01:30am 15.3 SW 5 6 1011.0 - 0.0 - - - - - - -
24/01:00am 15.7 WSW 6 7 1010.8 - 0.0 - - - - - - -
24/12:30am 16.6 SW 4 5 1010.7 - 0.0 - - - - - - -
24/12:00am 16.6 SW 4 6 1011.0 - 0.0 - - - - - - -
 
Date/Time
EST
Temp
°C
Wind Pressure Rain since
9am
mm
Weather Cloud Vis
km
Sea
Height
m
Swell
Dir  Spd
kts
Gust
kts
hPa Trend Height
m
Period
s
Dir
23/11:30pm 16.7 WSW 5 6 1011.0 - 0.0 - - - - - - -
23/11:00pm 17.3 W 5 6 1011.1 - 0.0 - - - - - - -
23/10:30pm 17.3 W 4 5 1011.2 - 0.0 - - - - - - -
23/10:00pm 17.3 W 5 6 1011.3 - 0.0 - - - - - - -
23/09:30pm 17.5 W 5 6 1011.5 - 0.0 - - - - - - -
23/09:00pm 17.6 WSW 5 6 1011.4 - 0.0 - - - - - - -
23/08:30pm 17.7 WNW 5 6 1011.2 - 0.0 - - - - - - -
23/08:00pm 17.9 NW 4 6 1010.8 - 0.0 - - - - - - -
23/07:30pm 18.3 NW 3 4 1010.4 - 0.0 - - - - - - -
23/07:00pm 18.8 SE 4 6 1010.0 - 0.0 - - - - - - -
23/06:30pm 18.9 ESE 5 7 1009.6 - 0.0 - - - - - - -
23/06:00pm 19.1 SE 5 7 1009.6 - 0.0 - - - - - - -
23/05:30pm 19.3 ESE 5 7 1008.9 - 0.0 - - - - - - -
23/05:00pm 20.0 ESE 7 9 1008.7 - 0.0 - - - - - - -
23/04:30pm 20.5 ESE 7 9 1008.4 - 0.0 - - - - - - -
23/04:00pm 20.5 ESE 8 11 1008.3 - 0.0 - - - - - - -
23/03:30pm 20.6 E 9 12 1008.1 - 0.0 - - - - - - -
23/03:00pm 20.8 E 7 11 1008.0 - 0.0 - - - - - - -
23/02:30pm 21.6 E 7 11 1008.0 - 0.0 - - - - - - -
23/02:00pm 21.6 ENE 7 10 1008.2 - 0.0 - - - - - - -
23/01:30pm 21.5 ENE 7 10 1008.3 - 0.0 - - - - - - -
23/01:00pm 22.5 ENE 7 11 1008.5 - 0.0 - - - - - - -
23/12:30pm 24.3 NW 6 7 1008.6 - 0.0 - - - - - - -
23/12:00pm 24.0 NW 6 9 1009.0 - 0.0 - - - - - - -
23/11:30am 23.1 SW 5 10 1009.5 - 0.0 - - - - - - -
23/11:00am 22.3 SSW 5 9 1009.9 - 0.0 - - - - - - -
23/10:30am 21.9 WSW 5 8 1010.2 - 0.0 - - - - - - -
23/10:00am 21.3 W 6 11 1010.5 - 0.0 - - - - - - -
23/09:30am 20.3 W 6 11 1010.6 - 0.0 - - - - - - -
23/09:00am 19.0 WSW 7 12 1010.7 - 0.2 - - - - - - -
23/08:30am 18.4 WSW 7 14 1010.7 - 0.2 - - - - - - -
23/08:00am 17.4 WSW 9 14 1010.7 - 0.2 - - - - - - -
23/07:30am 16.1 W 7 11 1010.6 - 0.2 - - - - - - -
23/07:00am 14.6 W 7 9 1010.3 - 0.2 - - - - - - -
23/06:30am 13.4 W 6 8 1010.1 - 0.2 - - - - - - -
23/06:00am 12.6 W 6 8 1009.9 - 0.2 - - - - - - -
23/05:30am 12.4 WNW 6 8 1009.5 - 0.2 - - - - - - -
23/05:00am 12.7 W 7 9 1009.3 - 0.2 - - - - - - -
23/04:30am 13.2 W 7 9 1009.1 - 0.2 - - - - - - -
23/04:00am 14.2 W 7 9 1009.0 - 0.2 - - - - - - -
23/03:30am 14.3 W 7 9 1008.7 - 0.2 - - - - - - -
23/03:00am 14.8 W 7 11 1008.8 - 0.2 - - - - - - -
23/02:30am 14.5 W 8 11 1009.0 - 0.2 - - - - - - -
23/02:00am 14.8 W 6 8 1009.2 - 0.2 - - - - - - -
23/01:30am 15.4 W 7 11 1009.4 - 0.2 - - - - - - -
23/01:00am 15.6 W 7 10 1009.6 - 0.2 - - - - - - -
23/12:30am 15.3 W 6 9 1009.9 - 0.2 - - - - - - -
23/12:00am 14.9 W 7 9 1010.1 - 0.2 - - - - - - -
 
Date/Time
EST
Temp
°C
Wind Pressure Rain since
9am
mm
Weather Cloud Vis
km
Sea
Height
m
Swell
Dir  Spd
kts
Gust
kts
hPa Trend Height
m
Period
s
Dir
22/11:30pm 15.1 WSW 5 10 1010.3 - 0.2 - - - - - - -
22/11:00pm 15.2 SW 5 9 1010.2 - 0.2 - - - - - - -
22/10:30pm 15.6 W 6 9 1010.3 - 0.2 - - - - - - -
22/10:00pm 16.3 WSW 5 7 1010.2 - 0.2 - - - - - - -
22/09:30pm 17.1 W 6 10 1010.3 - 0.2 - - - - - - -
22/09:00pm 17.0 W 6 8 1010.3 - 0.2 - - - - - - -
22/08:30pm 17.0 W 6 7 1010.2 - 0.2 - - - - - - -
22/08:00pm 17.6 WSW 5 7 1010.0 - 0.2 - - - - - - -
22/07:30pm 18.7 SW 4 6 1009.7 - 0.2 - - - - - - -
22/07:00pm 19.2 WSW 5 9 1009.4 - 0.2 - - - - - - -
22/06:30pm 20.0 SW 6 10 1009.1 - 0.2 - - - - - - -
22/06:00pm 20.6 SW 5 8 1008.5 - 0.2 - - - - - - -
22/05:30pm 21.5 SW 5 8 1008.0 - 0.2 - - - - - - -
22/05:00pm 23.0 WSW 6 12 1007.6 - 0.2 - - - - - - -
22/04:30pm 23.6 W 9 15 1007.1 - 0.2 - - - - - - -
22/04:00pm 23.9 WSW 10 17 1006.6 - 0.2 - - - - - - -
22/03:30pm 24.3 W 11 20 1006.4 - 0.2 - - - - - - -
22/03:00pm 24.8 W 10 18 1006.4 - 0.2 - - - - - - -
22/02:30pm 24.5 W 13 24 1006.2 - 0.2 - - - - - - -
22/02:00pm 24.8 W 9 16 1006.7 - 0.2 - - - - - - -

Other Formats:

Comma delimited format used in spreadsheet applications
http://www.bom.gov.au/fwo/IDN60701/IDN60701.94589.axf

JavaScript Object Notation format (JSON) in row-major order
http://www.bom.gov.au/fwo/IDN60701/IDN60701.94589.json